createdAt,value
2022-08-08T01:32:40.667Z,102339.47
2022-08-08T01:34:13.605Z,102337.17
2022-08-08T01:35:44.583Z,102339.47
2022-08-08T01:36:58.540Z,102337.56
2022-08-08T01:38:05.178Z,102338.18
2022-08-08T01:39:42.950Z,102340.60
2022-08-08T01:40:48.280Z,102335.45
2022-08-08T01:41:52.551Z,102337.14
2022-08-08T01:43:14.110Z,102337.88
2022-08-08T01:44:50.341Z,102335.59
2022-08-08T01:46:02.914Z,102335.38
2022-08-08T01:48:14.692Z,102335.50
2022-08-08T01:48:56.140Z,102332.64
2022-08-08T01:50:06.937Z,102327.98
2022-08-08T01:52:41.049Z,102333.21
2022-08-08T01:54:18.628Z,102335.92
2022-08-08T01:55:46.331Z,102337.09
2022-08-08T01:56:28.865Z,102334.29
2022-08-08T01:57:25.983Z,102337.72
2022-08-08T01:58:57.584Z,102338.17
2022-08-08T02:00:20.199Z,102337.84
2022-08-08T02:01:59.571Z,102337.34
2022-08-08T02:03:56.090Z,102336.96
2022-08-08T02:04:43.493Z,102338.88
2022-08-08T02:05:56.618Z,102338.67
2022-08-08T02:07:22.746Z,102338.71
2022-08-08T02:08:48.371Z,102340.73
2022-08-08T02:10:04.406Z,102338.89
2022-08-08T02:11:52.538Z,102338.96
2022-08-08T02:12:53.470Z,102342.60
2022-08-08T02:14:03.429Z,102340.55
2022-08-08T02:15:21.270Z,102340.47
2022-08-08T02:16:34.569Z,102340.71
2022-08-08T02:17:53.981Z,102341.79
2022-08-08T02:19:00.898Z,102342.10
2022-08-08T02:21:01.782Z,102342.77
2022-08-08T02:22:33.076Z,102338.55
2022-08-08T02:24:02.353Z,102335.98
2022-08-08T02:25:33.092Z,102341.48
2022-08-08T02:27:01.072Z,102335.71
2022-08-08T02:28:13.491Z,102335.36
2022-08-08T02:29:25.223Z,102338.06
2022-08-08T02:30:34.574Z,102336.39
2022-08-08T02:32:04.979Z,102337.38
2022-08-08T02:33:10.966Z,102335.17
2022-08-08T02:34:39.623Z,102335.98
2022-08-08T02:36:12.659Z,102338.61
2022-08-08T02:37:52.966Z,102337.45
2022-08-08T02:39:01.111Z,102340.20
2022-08-08T02:40:28.126Z,102336.65
2022-08-08T02:42:10.535Z,102340.33
2022-08-08T02:44:37.276Z,102342.99
2022-08-08T02:44:57.489Z,102340.33
2022-08-08T02:46:02.805Z,102341.08
2022-08-08T02:47:24.014Z,102343.33
2022-08-08T02:48:42.763Z,102345.42
2022-08-08T02:49:51.966Z,102347.42
2022-08-08T02:51:29.847Z,102348.13
2022-08-08T02:52:51.074Z,102349.52
2022-08-08T02:54:13.283Z,102351.07
2022-08-08T02:55:37.290Z,102350.90
2022-08-08T02:57:00.103Z,102349.86
2022-08-08T02:58:15.280Z,102348.57
2022-08-08T02:59:37.207Z,102350.48
2022-08-08T03:01:19.442Z,102345.42
2022-08-08T03:02:30.386Z,102346.02
2022-08-08T03:05:04.106Z,102345.42
2022-08-08T03:05:14.794Z,102346.35
2022-08-08T03:06:43.860Z,102347.27
2022-08-08T03:08:05.908Z,102346.14
2022-08-08T03:09:20.126Z,102348.17
2022-08-08T03:10:44.318Z,102353.13
2022-08-08T03:12:01.674Z,102349.17
2022-08-08T03:15:54.075Z,102350.52
2022-08-08T03:15:58.742Z,102351.41
2022-08-08T03:16:07.132Z,102351.30
2022-08-08T03:17:10.337Z,102351.47
2022-08-08T03:18:31.186Z,102351.55
2022-08-08T03:20:00.172Z,102350.38
2022-08-08T03:21:09.742Z,102351.52
2022-08-08T03:22:38.341Z,102350.59
2022-08-08T03:23:56.571Z,102354.87
2022-08-08T03:25:04.883Z,102357.95
2022-08-08T03:26:23.035Z,102352.84
2022-08-08T03:27:46.848Z,102356.70
2022-08-08T03:28:53.835Z,102355.04
2022-08-08T03:30:02.001Z,102356.46
2022-08-08T03:31:25.893Z,102354.33
2022-08-08T03:32:58.633Z,102352.66
2022-08-08T03:34:07.590Z,102353.45
2022-08-08T03:35:17.842Z,102351.50
2022-08-08T03:36:27.386Z,102353.50
2022-08-08T03:37:59.653Z,102353.45
2022-08-08T03:39:07.705Z,102351.46
2022-08-08T03:40:29.768Z,102351.20
2022-08-08T03:42:28.063Z,102353.88
2022-08-08T03:43:18.074Z,102354.91
2022-08-08T03:44:30.535Z,102354.72
2022-08-08T03:46:03.006Z,102356.72
2022-08-08T03:47:07.025Z,102354.48
2022-08-08T03:48:21.209Z,102358.05
2022-08-08T03:50:00.308Z,102360.18
2022-08-08T03:51:07.573Z,102362.45
2022-08-08T03:52:12.982Z,102367.64
2022-08-08T03:53:37.886Z,102367.71
2022-08-08T03:55:02.119Z,102368.52
2022-08-08T03:56:09.728Z,102367.52
2022-08-08T03:58:31.498Z,102366.64
2022-08-08T03:58:38.409Z,102365.43
2022-08-08T04:00:02.632Z,102369.30
2022-08-08T04:01:24.016Z,102373.26
2022-08-08T04:02:36.837Z,102375.86
2022-08-08T04:03:58.983Z,102373.57
2022-08-08T04:05:10.262Z,102372.27
2022-08-08T04:06:16.554Z,102373.04
2022-08-08T04:07:21.172Z,102371.41
2022-08-08T04:08:32.851Z,102373.91
2022-08-08T04:09:59.156Z,102372.90
2022-08-08T04:11:11.497Z,102370.62
2022-08-08T04:12:20.958Z,102371.24
2022-08-08T04:13:26.081Z,102369.13
2022-08-08T04:14:35.718Z,102372.73
2022-08-08T04:15:40.211Z,102370.88
2022-08-08T04:17:04.342Z,102374.84
2022-08-08T04:18:16.614Z,102374.11
2022-08-08T04:19:23.324Z,102374.30
2022-08-08T04:20:30.031Z,102375.05
2022-08-08T04:21:38.019Z,102375.23
2022-08-08T04:22:44.572Z,102374.95
2022-08-08T04:24:11.883Z,102379.63
2022-08-08T04:25:17.478Z,102374.77
2022-08-08T04:26:20.653Z,102379.70
2022-08-08T04:28:02.194Z,102378.63
2022-08-08T04:28:54.631Z,102378.02
2022-08-08T04:30:00.740Z,102379.92
2022-08-08T04:31:58.173Z,102382.55
2022-08-08T04:32:47.881Z,102384.16
2022-08-08T04:33:51.324Z,102386.88
2022-08-08T04:34:58.496Z,102388.05
2022-08-08T04:36:05.151Z,102387.71
2022-08-08T04:37:10.287Z,102387.01
2022-08-08T04:38:21.445Z,102388.51
2022-08-08T04:40:04.419Z,102388.42
2022-08-08T04:40:53.760Z,102388.92
2022-08-08T04:41:58.243Z,102387.92
2022-08-08T04:43:01.630Z,102390.05
2022-08-08T04:44:11.321Z,102391.55
2022-08-08T04:45:15.947Z,102390.98
2022-08-08T04:46:18.941Z,102390.59
2022-08-08T04:47:24.394Z,102385.88
2022-08-08T04:48:27.920Z,102386.63
2022-08-08T04:49:59.089Z,102387.23
2022-08-08T04:50:57.754Z,102387.02
2022-08-08T04:52:05.235Z,102391.00
2022-08-08T04:53:52.674Z,102389.58
2022-08-08T04:54:39.590Z,102390.20
2022-08-08T04:55:47.379Z,102391.84
2022-08-08T04:56:58.328Z,102393.64
2022-08-08T04:58:01.363Z,102394.89
2022-08-08T04:59:04.656Z,102392.42
2022-08-08T05:00:10.193Z,102392.34
2022-08-08T05:01:13.578Z,102392.59
2022-08-08T05:02:28.626Z,102389.77
2022-08-08T05:04:10.927Z,102390.11
2022-08-08T05:04:59.375Z,102394.42
2022-08-08T05:06:13.597Z,102393.44
2022-08-08T05:07:21.658Z,102394.12
2022-08-08T05:08:26.955Z,102388.48
2022-08-08T05:09:32.205Z,102390.29
2022-08-08T05:10:39.791Z,102389.75
2022-08-08T05:11:42.766Z,102390.38
2022-08-08T05:13:01.581Z,102390.42
2022-08-08T05:14:07.343Z,102390.45
2022-08-08T05:15:13.653Z,102392.92
2022-08-08T05:16:53.078Z,102389.35
2022-08-08T05:17:54.603Z,102395.02
2022-08-08T05:18:59.300Z,102396.70
2022-08-08T05:20:09.194Z,102398.27
2022-08-08T05:21:19.448Z,102397.54
2022-08-08T05:22:25.213Z,102399.33
2022-08-08T05:23:30.107Z,102399.48
2022-08-08T05:24:48.729Z,102402.05
2022-08-08T05:26:00.181Z,102400.18
2022-08-08T05:27:04.062Z,102402.25
2022-08-08T05:28:07.712Z,102399.42
2022-08-08T05:29:11.278Z,102398.50
2022-08-08T05:30:15.354Z,102400.34
2022-08-08T05:32:03.847Z,102404.16
2022-08-08T05:32:45.886Z,102404.03
2022-08-08T05:33:51.735Z,102405.05
2022-08-08T05:34:57.818Z,102404.09
2022-08-08T05:36:02.890Z,102400.98
2022-08-08T05:37:18.571Z,102406.08
2022-08-08T05:38:31.334Z,102402.63
2022-08-08T05:39:51.241Z,102405.42
2022-08-08T05:40:58.375Z,102404.30
2022-08-08T05:42:03.861Z,102407.04
2022-08-08T05:43:40.204Z,102405.54
2022-08-08T05:44:44.795Z,102403.23
2022-08-08T05:45:53.343Z,102405.30
2022-08-08T05:47:03.008Z,102410.98
2022-08-08T05:48:08.202Z,102409.80
2022-08-08T05:49:13.780Z,102411.52
2022-08-08T05:50:19.476Z,102410.90
2022-08-08T05:51:22.912Z,102410.83
2022-08-08T05:52:35.530Z,102411.42
2022-08-08T05:54:24.857Z,102411.36
2022-08-08T05:55:08.965Z,102413.92
2022-08-08T05:56:15.411Z,102412.79
2022-08-08T05:58:04.011Z,102412.65
2022-08-08T05:58:57.045Z,102415.80
2022-08-08T06:00:23.146Z,102413.67
2022-08-08T06:01:56.223Z,102413.77
2022-08-08T06:03:17.132Z,102414.80
2022-08-08T06:04:26.576Z,102413.44
2022-08-08T06:05:36.429Z,102416.14
2022-08-08T06:06:48.108Z,102417.11
2022-08-08T06:08:02.562Z,102414.10
2022-08-08T06:09:41.886Z,102417.73
2022-08-08T06:10:33.542Z,102418.06
2022-08-08T06:11:46.159Z,102416.17
2022-08-08T06:12:50.852Z,102419.29
2022-08-08T06:13:54.214Z,102417.60
2022-08-08T06:14:59.912Z,102419.87
2022-08-08T06:16:03.031Z,102420.46
2022-08-08T06:17:32.152Z,102417.87
2022-08-08T06:18:47.511Z,102424.33
2022-08-08T06:19:55.212Z,102424.12
2022-08-08T06:20:59.575Z,102424.11
2022-08-08T06:23:52.709Z,102428.73
2022-08-08T06:25:01.509Z,102430.55
2022-08-08T06:26:38.518Z,102429.90
2022-08-08T06:27:32.346Z,102427.75
2022-08-08T06:28:41.747Z,102427.52
2022-08-08T06:29:59.888Z,102427.14
2022-08-08T06:31:05.029Z,102426.81
2022-08-08T06:32:17.298Z,102429.23
2022-08-08T06:33:36.654Z,102429.39
2022-08-08T06:35:12.157Z,102431.65
2022-08-08T06:36:30.888Z,102433.89
2022-08-08T06:37:37.515Z,102434.65
2022-08-08T06:38:47.243Z,102434.58
2022-08-08T06:39:56.743Z,102436.71
2022-08-08T06:41:13.414Z,102434.39
2022-08-08T06:42:18.839Z,102436.56
2022-08-08T06:43:28.499Z,102434.56
2022-08-08T06:44:42.578Z,102435.95
2022-08-08T06:45:48.177Z,102432.81
2022-08-08T06:46:52.430Z,102433.04
2022-08-08T06:48:01.529Z,102435.20
2022-08-08T06:49:07.571Z,102436.17
2022-08-08T06:50:17.715Z,102435.79
2022-08-08T06:51:47.177Z,102437.08
2022-08-08T06:53:10.160Z,102437.45
2022-08-08T06:54:22.535Z,102440.38
2022-08-08T06:55:26.857Z,102440.35
2022-08-08T06:56:31.213Z,102441.75
2022-08-08T06:57:54.714Z,102441.73
2022-08-08T06:59:00.506Z,102439.40
2022-08-08T07:00:10.098Z,102437.02
2022-08-08T07:02:17.967Z,102436.34
2022-08-08T07:02:45.180Z,102437.07
2022-08-08T07:04:35.588Z,102439.00
2022-08-08T07:05:20.583Z,102441.04
2022-08-08T07:06:29.929Z,102445.61
2022-08-08T07:08:05.802Z,102445.30
2022-08-08T07:09:17.849Z,102439.23
2022-08-08T07:10:25.284Z,102440.91
2022-08-08T07:11:50.671Z,102438.39
2022-08-08T07:13:04.922Z,102442.17
2022-08-08T07:14:19.263Z,102443.36
2022-08-08T07:15:41.204Z,102443.54
2022-08-08T07:16:54.573Z,102445.34
2022-08-08T07:18:36.041Z,102445.17
2022-08-08T07:19:37.221Z,102441.95
2022-08-08T07:20:50.644Z,102444.05
2022-08-08T07:22:05.083Z,102443.87
2022-08-08T07:23:23.517Z,102442.91
2022-08-08T07:24:34.643Z,102446.60
2022-08-08T07:25:40.236Z,102444.52
2022-08-08T07:26:59.147Z,102443.61
2022-08-08T07:28:19.772Z,102446.52
2022-08-08T07:29:59.096Z,102450.27
2022-08-08T07:30:47.349Z,102446.54
2022-08-08T07:31:52.526Z,102448.39
2022-08-08T07:32:59.414Z,102448.98
2022-08-08T07:34:08.649Z,102450.09
2022-08-08T07:35:14.052Z,102447.60
2022-08-08T07:36:22.228Z,102452.09
2022-08-08T07:37:28.465Z,102450.02
2022-08-08T07:38:53.369Z,102451.16
2022-08-08T07:39:59.726Z,102454.58
2022-08-08T07:41:05.121Z,102453.52
2022-08-08T07:42:12.622Z,102453.98
2022-08-08T07:43:16.828Z,102454.59
2022-08-08T07:44:40.783Z,102453.21
2022-08-08T07:46:05.737Z,102456.65
2022-08-08T07:47:10.785Z,102455.67
2022-08-08T07:48:13.840Z,102460.23
2022-08-08T07:49:16.966Z,102459.65
2022-08-08T07:50:22.127Z,102458.23
2022-08-08T07:51:44.407Z,102458.92
2022-08-08T07:52:51.426Z,102459.73
2022-08-08T07:54:15.824Z,102460.66
2022-08-08T07:55:30.138Z,102459.04
2022-08-08T07:57:01.993Z,102458.75
2022-08-08T07:58:12.788Z,102453.63
2022-08-08T07:59:19.496Z,102458.02
2022-08-08T08:00:30.145Z,102458.73
2022-08-08T08:02:35.104Z,102455.40
2022-08-08T08:03:12.381Z,102458.52
2022-08-08T08:04:23.782Z,102459.70
2022-08-08T08:05:33.653Z,102458.71
2022-08-08T08:06:38.642Z,102458.70
2022-08-08T08:07:52.955Z,102459.27
2022-08-08T08:09:06.994Z,102460.24
2022-08-08T08:10:12.654Z,102462.41
2022-08-08T08:11:20.872Z,102461.66
2022-08-08T08:12:35.718Z,102459.08
2022-08-08T08:14:08.014Z,102464.20
2022-08-08T08:15:18.535Z,102464.31
2022-08-08T08:16:32.202Z,102465.20
2022-08-08T08:17:48.872Z,102464.59
2022-08-08T08:18:56.739Z,102462.85
2022-08-08T08:20:04.741Z,102467.39
2022-08-08T08:21:14.546Z,102465.84
2022-08-08T08:22:25.486Z,102463.20
2022-08-08T08:23:40.606Z,102466.23
2022-08-08T08:24:46.941Z,102464.14
2022-08-08T08:25:51.178Z,102464.95
2022-08-08T08:26:58.657Z,102462.48
2022-08-08T08:28:03.066Z,102467.42
2022-08-08T08:29:06.783Z,102465.66
2022-08-08T08:30:10.414Z,102470.27
2022-08-08T08:31:13.952Z,102471.77
2022-08-08T08:32:35.805Z,102472.02
2022-08-08T08:33:46.263Z,102472.91
2022-08-08T08:34:55.914Z,102473.17
2022-08-08T08:36:19.627Z,102474.39
2022-08-08T08:37:27.106Z,102474.56
2022-08-08T08:38:33.590Z,102472.83
2022-08-08T08:40:01.955Z,102477.21
2022-08-08T08:41:06.105Z,102476.00
2022-08-08T08:42:19.439Z,102475.13
2022-08-08T08:43:35.971Z,102475.92
2022-08-08T08:44:46.012Z,102476.21
2022-08-08T08:45:49.708Z,102475.64
2022-08-08T08:47:02.821Z,102475.21
2022-08-08T08:48:10.392Z,102477.18
2022-08-08T08:49:19.603Z,102476.42
2022-08-08T08:50:33.440Z,102481.07
2022-08-08T08:51:51.475Z,102478.48
2022-08-08T08:52:59.924Z,102478.84
2022-08-08T08:54:03.549Z,102478.61
2022-08-08T08:55:12.242Z,102479.66
2022-08-08T08:56:23.729Z,102479.98
2022-08-08T08:57:34.519Z,102480.89
2022-08-08T08:58:46.747Z,102479.56
2022-08-08T09:00:04.706Z,102480.13
2022-08-08T09:01:14.633Z,102475.71
2022-08-08T09:02:21.811Z,102480.12
2022-08-08T09:03:31.423Z,102480.52
2022-08-08T09:04:52.642Z,102474.75
2022-08-08T09:05:56.772Z,102479.25
2022-08-08T09:07:02.305Z,102478.96
2022-08-08T09:08:20.564Z,102471.12
2022-08-08T09:09:39.882Z,102473.07
2022-08-08T09:10:51.559Z,102468.92
2022-08-08T09:12:06.185Z,102473.03
2022-08-08T09:13:13.672Z,102469.56
2022-08-08T09:14:25.978Z,102466.52
2022-08-08T09:15:37.568Z,102468.32
2022-08-08T09:16:47.771Z,102468.15
2022-08-08T09:17:55.793Z,102466.54
2022-08-08T09:19:00.984Z,102468.70
2022-08-08T09:21:59.699Z,102465.25
2022-08-08T09:22:02.441Z,102466.04
2022-08-08T09:22:58.654Z,102462.09
2022-08-08T09:24:04.077Z,102465.55
2022-08-08T09:25:10.347Z,102468.14
2022-08-08T09:26:14.443Z,102465.85
2022-08-08T09:27:20.291Z,102467.06
2022-08-08T09:28:37.206Z,102465.63
2022-08-08T09:30:03.236Z,102466.57
2022-08-08T09:31:12.701Z,102464.80
2022-08-08T09:32:19.434Z,102469.48
2022-08-08T09:34:06.218Z,102468.48
2022-08-08T09:34:50.818Z,102463.98
2022-08-08T09:35:55.094Z,102463.74
2022-08-08T09:37:57.520Z,102468.96
2022-08-08T09:38:31.975Z,102463.64
2022-08-08T09:39:42.773Z,102462.33
2022-08-08T09:40:55.602Z,102468.20
2022-08-08T09:42:20.034Z,102466.73
2022-08-08T09:44:04.763Z,102466.36
2022-08-08T09:45:15.562Z,102465.11
2022-08-08T09:46:25.665Z,102465.64
2022-08-08T09:48:05.041Z,102468.09
2022-08-08T09:49:04.322Z,102467.61
2022-08-08T09:50:23.642Z,102466.52
2022-08-08T09:51:30.202Z,102468.46
2022-08-08T09:52:56.494Z,102468.56
2022-08-08T09:54:08.413Z,102465.65
2022-08-08T09:56:03.101Z,102464.13
2022-08-08T09:56:45.350Z,102468.27
2022-08-08T09:57:55.653Z,102464.98
2022-08-08T09:59:32.129Z,102462.02
2022-08-08T10:00:49.779Z,102461.84
2022-08-08T10:02:00.299Z,102461.49
2022-08-08T10:03:06.137Z,102459.64
2022-08-08T10:04:14.680Z,102457.86
2022-08-08T10:05:39.802Z,102460.48
2022-08-08T10:06:53.017Z,102461.95
2022-08-08T10:08:00.008Z,102463.32
2022-08-08T10:09:04.190Z,102464.95
2022-08-08T10:10:07.603Z,102467.04
2022-08-08T10:12:22.395Z,102467.99
2022-08-08T10:12:53.262Z,102465.90
2022-08-08T10:14:00.987Z,102465.58
2022-08-08T10:15:17.449Z,102471.96
2022-08-08T10:16:22.421Z,102464.80
2022-08-08T10:17:38.769Z,102469.03
2022-08-08T10:19:02.579Z,102469.98
2022-08-08T10:20:06.442Z,102468.45
2022-08-08T10:21:25.162Z,102468.43
2022-08-08T10:22:32.017Z,102467.60
2022-08-08T10:23:43.352Z,102469.96
2022-08-08T10:24:49.624Z,102472.04
2022-08-08T10:25:57.188Z,102469.62
2022-08-08T10:27:06.974Z,102464.69
2022-08-08T10:28:21.682Z,102466.17
2022-08-08T10:29:56.893Z,102467.31
2022-08-08T10:31:01.888Z,102465.17
2022-08-08T10:32:26.935Z,102467.27
2022-08-08T10:33:38.568Z,102466.30
2022-08-08T10:35:01.416Z,102464.77
2022-08-08T10:36:09.181Z,102464.52
2022-08-08T10:37:26.306Z,102463.23
2022-08-08T10:38:32.161Z,102463.42
2022-08-08T10:39:53.589Z,102465.20
2022-08-08T10:40:59.931Z,102467.74
2022-08-08T10:42:14.837Z,102464.36
2022-08-08T10:43:20.169Z,102465.83
2022-08-08T10:44:49.497Z,102462.86
2022-08-08T10:45:56.738Z,102460.13
2022-08-08T10:47:13.306Z,102459.07
2022-08-08T10:48:16.468Z,102457.08
2022-08-08T10:50:00.589Z,102452.59
2022-08-08T10:50:43.470Z,102459.41
2022-08-08T10:51:51.322Z,102459.52
2022-08-08T10:53:00.788Z,102454.80
2022-08-08T10:54:04.496Z,102455.98
2022-08-08T10:55:13.778Z,102452.71
2022-08-08T10:56:27.781Z,102455.42
2022-08-08T10:57:50.421Z,102456.27
2022-08-08T10:59:02.260Z,102455.23
2022-08-08T11:00:05.866Z,102453.27
2022-08-08T11:01:12.650Z,102451.86
2022-08-08T11:02:29.111Z,102452.63
2022-08-08T11:04:00.932Z,102450.50
2022-08-08T11:05:15.010Z,102450.17
2022-08-08T11:06:18.816Z,102447.32
2022-08-08T11:08:30.277Z,102449.21
2022-08-08T11:08:53.181Z,102447.21
2022-08-08T11:10:00.802Z,102449.20
2022-08-08T11:11:08.070Z,102451.22
2022-08-08T11:12:13.823Z,102448.39
2022-08-08T11:13:30.405Z,102451.72
2022-08-08T11:14:35.310Z,102444.00
2022-08-08T11:15:58.926Z,102447.48
2022-08-08T11:17:01.183Z,102448.50
2022-08-08T11:18:04.797Z,102452.80
2022-08-08T11:19:10.570Z,102447.95
2022-08-08T11:20:21.460Z,102448.89
2022-08-08T11:21:35.192Z,102448.48
2022-08-08T11:22:38.723Z,102447.75
2022-08-08T11:23:42.567Z,102448.37
2022-08-08T11:24:47.266Z,102450.44
2022-08-08T11:25:52.600Z,102448.40
2022-08-08T11:27:00.922Z,102449.52
2022-08-08T11:28:13.927Z,102447.34
2022-08-08T11:29:17.490Z,102446.89
2022-08-08T11:30:24.912Z,102453.54
2022-08-08T11:31:43.612Z,102453.35
2022-08-08T11:33:12.423Z,102458.38
2022-08-08T11:34:24.348Z,102457.95
2022-08-08T11:35:43.552Z,102461.59
2022-08-08T11:36:46.554Z,102459.61
2022-08-08T11:38:39.323Z,102461.22
2022-08-08T11:39:19.845Z,102460.81
2022-08-08T11:40:26.560Z,102466.02
2022-08-08T11:41:32.400Z,102460.45
2022-08-08T11:42:37.543Z,102463.80
2022-08-08T11:43:42.217Z,102461.48
2022-08-08T11:44:45.953Z,102465.15
2022-08-08T11:46:09.761Z,102463.02
2022-08-08T11:47:17.055Z,102462.67
2022-08-08T11:48:21.233Z,102465.77
2022-08-08T11:49:31.033Z,102463.96
2022-08-08T11:50:34.355Z,102464.68
2022-08-08T11:51:49.577Z,102461.98
2022-08-08T11:52:57.852Z,102463.50
2022-08-08T11:54:04.123Z,102463.63
2022-08-08T11:55:22.989Z,102463.94
2022-08-08T11:56:26.027Z,102462.90
2022-08-08T11:57:30.272Z,102462.69
2022-08-08T11:58:38.330Z,102464.89
2022-08-08T12:00:00.377Z,102465.33
2022-08-08T12:01:16.386Z,102462.73
2022-08-08T12:02:33.394Z,102466.73
2022-08-08T12:03:42.951Z,102468.43
2022-08-08T12:04:47.586Z,102471.09
2022-08-08T12:05:51.409Z,102471.02
2022-08-08T12:07:02.499Z,102472.06
2022-08-08T12:08:06.984Z,102469.80
2022-08-08T12:09:17.089Z,102468.90
2022-08-08T12:10:23.805Z,102471.83
2022-08-08T12:11:37.367Z,102467.95
2022-08-08T12:12:41.781Z,102470.03
2022-08-08T12:14:03.985Z,102474.65
2022-08-08T12:15:09.476Z,102476.70
2022-08-08T12:16:16.919Z,102480.08
2022-08-08T12:17:31.420Z,102478.89
2022-08-08T12:18:49.318Z,102483.80
2022-08-08T12:19:56.600Z,102481.57
2022-08-08T12:21:00.133Z,102479.19
2022-08-08T12:22:09.464Z,102483.30
2022-08-08T12:23:39.996Z,102481.23
2022-08-08T12:24:51.411Z,102479.95
2022-08-08T12:26:16.807Z,102478.78
2022-08-08T12:27:20.701Z,102480.59
2022-08-08T12:28:23.616Z,102479.19
2022-08-08T12:29:40.933Z,102476.17
2022-08-08T12:30:47.926Z,102477.23
2022-08-08T12:32:03.378Z,102474.33
2022-08-08T12:33:37.006Z,102474.21
2022-08-08T12:34:41.391Z,102469.88
2022-08-08T12:35:52.223Z,102473.23
2022-08-08T12:37:02.984Z,102480.91
2022-08-08T12:38:09.653Z,102471.58
2022-08-08T12:40:00.601Z,102475.33
2022-08-08T12:40:56.556Z,102478.16
2022-08-08T12:42:04.628Z,102476.70
2022-08-08T12:43:09.325Z,102475.98
2022-08-08T12:44:14.807Z,102476.13
2022-08-08T12:45:58.203Z,102477.02
2022-08-08T12:47:01.108Z,102475.26
2022-08-08T12:48:18.273Z,102467.27
2022-08-08T12:49:43.921Z,102463.98
2022-08-08T12:50:49.696Z,102465.58
2022-08-08T12:51:58.616Z,102466.84
2022-08-08T12:53:03.855Z,102466.98
2022-08-08T12:54:24.627Z,102470.92
2022-08-08T12:55:29.251Z,102467.98
2022-08-08T12:56:52.254Z,102470.04
2022-08-08T12:57:56.792Z,102469.79
2022-08-08T12:59:00.356Z,102468.09
2022-08-08T13:00:13.642Z,102470.88
2022-08-08T13:01:24.223Z,102467.96
2022-08-08T13:02:42.031Z,102471.54
2022-08-08T13:03:54.337Z,102470.38
2022-08-08T13:04:58.459Z,102464.50
2022-08-08T13:06:06.704Z,102465.69
2022-08-08T13:07:16.678Z,102466.92
2022-08-08T13:08:22.018Z,102471.66
2022-08-08T13:09:33.007Z,102466.46
2022-08-08T13:10:46.191Z,102467.88
2022-08-08T13:12:28.056Z,102463.88
2022-08-08T13:13:29.486Z,102467.61
2022-08-08T13:14:39.816Z,102468.42
2022-08-08T13:16:16.830Z,102466.86
2022-08-08T13:18:08.901Z,102465.96
2022-08-08T13:18:56.926Z,102465.02
2022-08-08T13:20:08.644Z,102465.43
2022-08-08T13:21:16.346Z,102464.91
2022-08-08T13:22:19.383Z,102467.48
2022-08-08T13:23:30.925Z,102464.77
2022-08-08T13:24:48.082Z,102467.99
2022-08-08T13:25:59.179Z,102470.05
2022-08-08T13:27:06.464Z,102468.08
2022-08-08T13:28:14.625Z,102466.02
2022-08-08T13:29:22.902Z,102467.08
2022-08-08T13:30:28.510Z,102468.70
2022-08-08T13:31:31.579Z,102466.62
2022-08-08T13:32:35.991Z,102467.44
2022-08-08T13:33:42.775Z,102467.40
2022-08-08T13:34:49.436Z,102470.03
2022-08-08T13:35:56.200Z,102471.98
2022-08-08T13:36:59.985Z,102475.58
2022-08-08T13:38:06.525Z,102472.98
2022-08-08T13:39:14.315Z,102470.41
2022-08-08T13:40:26.721Z,102471.46
2022-08-08T13:41:37.663Z,102474.55
2022-08-08T13:42:43.311Z,102471.64
2022-08-08T13:43:49.821Z,102473.48
2022-08-08T13:44:55.551Z,102478.50
2022-08-08T13:46:26.946Z,102483.88
2022-08-08T13:47:32.185Z,102481.95
2022-08-08T13:48:43.962Z,102481.81
2022-08-08T13:50:37.205Z,102481.77
2022-08-08T13:51:24.863Z,102480.64
2022-08-08T13:52:47.225Z,102489.17
2022-08-08T13:53:53.277Z,102482.89
2022-08-08T13:55:05.262Z,102483.96
2022-08-08T13:56:11.511Z,102486.46
2022-08-08T13:57:16.229Z,102485.36
2022-08-08T13:58:20.464Z,102483.31
2022-08-08T13:59:32.773Z,102487.12
2022-08-08T14:00:40.041Z,102492.91
2022-08-08T14:01:57.991Z,102490.92
2022-08-08T14:03:19.914Z,102490.67
2022-08-08T14:04:28.607Z,102491.20
2022-08-08T14:05:34.406Z,102488.89
2022-08-08T14:06:44.454Z,102492.15
2022-08-08T14:07:49.999Z,102494.44
2022-08-08T14:08:57.062Z,102493.09
2022-08-08T14:10:05.604Z,102494.63
2022-08-08T14:11:15.703Z,102494.69
2022-08-08T14:12:20.823Z,102493.59
2022-08-08T14:13:33.193Z,102490.96
2022-08-08T14:14:47.017Z,102492.23
2022-08-08T14:16:01.012Z,102492.70
2022-08-08T14:17:04.880Z,102493.27
2022-08-08T14:18:34.561Z,102489.96
2022-08-08T14:19:57.755Z,102492.31
2022-08-08T14:21:08.219Z,102494.08
2022-08-08T14:22:18.661Z,102496.71
2022-08-08T14:24:07.709Z,102499.85
2022-08-08T14:25:17.575Z,102501.08
2022-08-08T14:26:22.049Z,102505.89
2022-08-08T14:27:33.278Z,102508.64
2022-08-08T14:28:39.702Z,102505.52
2022-08-08T14:29:52.571Z,102504.40
2022-08-08T14:31:07.755Z,102505.55
2022-08-08T14:32:20.307Z,102505.73
2022-08-08T14:33:34.041Z,102506.61
2022-08-08T14:34:39.516Z,102505.77
2022-08-08T14:35:49.621Z,102507.84
2022-08-08T14:36:56.650Z,102510.26
2022-08-08T14:38:09.378Z,102507.19
2022-08-08T14:39:48.015Z,102507.68
2022-08-08T14:40:51.636Z,102512.85
2022-08-08T14:41:59.431Z,102514.30
2022-08-08T14:43:22.259Z,102513.20
2022-08-08T14:44:35.196Z,102510.73
2022-08-08T14:46:02.626Z,102504.83
2022-08-08T14:47:01.573Z,102501.30
2022-08-08T14:48:04.983Z,102499.73
2022-08-08T14:49:20.458Z,102498.44
2022-08-08T14:50:38.101Z,102499.91
2022-08-08T14:51:51.724Z,102496.63
2022-08-08T14:53:13.299Z,102497.91
2022-08-08T14:54:28.882Z,102499.11
2022-08-08T14:55:41.839Z,102499.00
2022-08-08T14:56:45.681Z,102494.40
2022-08-08T14:58:06.541Z,102494.70
2022-08-08T14:59:22.270Z,102496.00
2022-08-08T15:00:34.898Z,102491.89
2022-08-08T15:01:41.296Z,102497.52
2022-08-08T15:02:59.013Z,102500.21
2022-08-08T15:04:11.444Z,102500.23
2022-08-08T15:05:16.617Z,102499.05
2022-08-08T15:06:25.630Z,102499.73
2022-08-08T15:07:39.355Z,102494.34
2022-08-08T15:08:53.050Z,102498.13
2022-08-08T15:09:58.357Z,102499.42
2022-08-08T15:11:01.607Z,102492.55
2022-08-08T15:12:07.601Z,102491.77
2022-08-08T15:13:13.571Z,102495.09
2022-08-08T15:14:17.003Z,102491.83
2022-08-08T15:16:01.364Z,102491.10
2022-08-08T15:16:46.626Z,102489.05
2022-08-08T15:17:51.279Z,102485.02
2022-08-08T15:18:54.171Z,102484.21
2022-08-08T15:19:57.505Z,102484.66
2022-08-08T15:21:00.982Z,102482.36
2022-08-08T15:22:03.893Z,102482.38
2022-08-08T15:23:07.307Z,102484.29
2022-08-08T15:24:14.231Z,102478.08
2022-08-08T15:25:29.158Z,102479.80
2022-08-08T15:26:35.976Z,102477.91
2022-08-08T15:28:04.884Z,102480.65
2022-08-08T15:29:04.046Z,102477.20
2022-08-08T15:30:12.685Z,102478.80
2022-08-08T15:31:55.696Z,102483.52